createdAt,value
2017-08-25T00:00:17.150Z,46.70
2017-08-25T00:02:50.240Z,46.71
2017-08-25T00:05:21.988Z,46.70
2017-08-25T00:07:53.490Z,46.68
2017-08-25T00:10:26.666Z,46.64
2017-08-25T00:12:58.170Z,46.34
2017-08-25T00:15:31.675Z,46.70
2017-08-25T00:18:05.028Z,46.89
2017-08-25T00:20:38.000Z,46.62
2017-08-25T00:23:10.463Z,47.05
2017-08-25T00:25:42.295Z,47.09
2017-08-25T00:28:15.776Z,47.11
2017-08-25T00:30:47.130Z,47.32
2017-08-25T00:33:18.448Z,47.20
2017-08-25T00:35:50.411Z,47.20
2017-08-25T00:38:22.701Z,47.23
2017-08-25T00:40:54.324Z,47.23
2017-08-25T00:43:27.083Z,47.00
2017-08-25T00:45:58.502Z,47.04
2017-08-25T00:48:32.024Z,47.25
2017-08-25T00:51:05.037Z,47.31
2017-08-25T00:53:36.494Z,47.65
2017-08-25T00:56:09.130Z,47.63
2017-08-25T00:58:40.520Z,47.49
2017-08-25T01:01:11.935Z,47.74
2017-08-25T01:03:44.021Z,47.63
2017-08-25T01:06:16.690Z,47.69
2017-08-25T01:08:48.312Z,47.67
2017-08-25T01:11:19.833Z,47.69
2017-08-25T01:13:51.452Z,48.04
2017-08-25T01:16:23.908Z,48.22
2017-08-25T01:18:55.235Z,48.07
2017-08-25T01:21:28.367Z,47.78
2017-08-25T01:23:59.739Z,47.70
2017-08-25T01:29:36.140Z,47.79
2017-08-25T01:32:07.933Z,47.92
2017-08-25T01:34:39.781Z,48.05
2017-08-25T01:37:11.256Z,48.11
2017-08-25T01:39:43.200Z,48.04
2017-08-25T01:42:14.606Z,48.26
2017-08-25T01:44:45.996Z,48.40
2017-08-25T01:47:17.492Z,48.56
2017-08-25T01:49:50.213Z,48.60
2017-08-25T01:52:24.003Z,48.77
2017-08-25T01:54:55.684Z,48.89
2017-08-25T01:57:27.124Z,49.04
2017-08-25T01:59:58.816Z,49.36
2017-08-25T02:02:30.508Z,49.35
2017-08-25T02:05:02.999Z,49.46
2017-08-25T02:07:34.696Z,49.52
2017-08-25T02:10:08.810Z,49.60
2017-08-25T02:15:45.132Z,49.89
2017-08-25T02:18:16.531Z,49.83
2017-08-25T02:20:48.223Z,50.00
2017-08-25T02:23:20.296Z,49.87
2017-08-25T02:25:51.636Z,49.82
2017-08-25T02:28:23.337Z,49.78
2017-08-25T02:30:55.042Z,49.57
2017-08-25T02:33:26.628Z,49.44
2017-08-25T02:35:57.936Z,49.31
2017-08-25T02:38:29.240Z,49.22
2017-08-25T02:41:01.674Z,49.31
2017-08-25T02:43:33.018Z,49.34
2017-08-25T02:46:07.089Z,49.26
2017-08-25T02:48:38.777Z,49.33
2017-08-25T02:51:11.257Z,49.17
2017-08-25T02:53:42.567Z,49.00
2017-08-25T02:56:13.898Z,49.19
2017-08-25T02:58:45.295Z,49.16
2017-08-25T03:01:17.346Z,49.11
2017-08-25T03:03:48.680Z,49.18
2017-08-25T03:06:20.319Z,49.11
2017-08-25T03:08:51.664Z,48.93
2017-08-25T03:11:23.139Z,48.89
2017-08-25T03:13:54.797Z,48.97
2017-08-25T03:16:26.114Z,49.04
2017-08-25T03:18:57.610Z,49.14
2017-08-25T03:21:28.942Z,49.26
2017-08-25T03:24:00.271Z,49.39
2017-08-25T03:26:31.624Z,49.44
2017-08-25T03:29:03.524Z,49.92
2017-08-25T03:31:35.247Z,50.02
2017-08-25T03:34:06.966Z,49.90
2017-08-25T03:36:38.701Z,49.92
2017-08-25T03:39:10.095Z,50.03
2017-08-25T03:41:41.399Z,50.11
2017-08-25T03:44:13.070Z,50.16
2017-08-25T03:46:44.387Z,50.32
2017-08-25T03:49:17.034Z,50.42
2017-08-25T03:51:48.416Z,50.50
2017-08-25T03:54:20.417Z,50.63
2017-08-25T03:56:52.205Z,50.80
2017-08-25T03:59:23.509Z,50.84
2017-08-25T04:01:55.421Z,51.10
2017-08-25T04:04:26.754Z,51.30
2017-08-25T04:06:58.108Z,51.55
2017-08-25T04:09:29.767Z,51.92
2017-08-25T04:12:01.291Z,52.49
2017-08-25T04:14:32.687Z,52.69
2017-08-25T04:17:05.508Z,52.80
2017-08-25T04:19:36.848Z,52.88
2017-08-25T04:22:10.983Z,53.08
2017-08-25T04:24:42.678Z,53.08
2017-08-25T04:27:15.170Z,53.31
2017-08-25T04:29:47.020Z,53.30
2017-08-25T04:32:19.452Z,53.35
2017-08-25T04:34:50.867Z,53.48
2017-08-25T04:37:24.568Z,53.69
2017-08-25T04:39:56.003Z,53.73
2017-08-25T04:42:27.539Z,53.70
2017-08-25T04:44:58.903Z,53.74
2017-08-25T04:47:30.756Z,53.67
2017-08-25T04:50:03.407Z,53.75
2017-08-25T04:52:34.871Z,53.82
2017-08-25T04:55:06.777Z,53.76
2017-08-25T04:57:38.195Z,53.58
2017-08-25T05:00:11.629Z,53.50
2017-08-25T05:02:43.287Z,53.51
2017-08-25T05:05:14.623Z,53.73
2017-08-25T05:07:46.250Z,53.83
2017-08-25T05:10:17.576Z,53.93
2017-08-25T05:12:48.924Z,54.01
2017-08-25T05:15:20.748Z,53.88
2017-08-25T05:17:52.087Z,53.74
2017-08-25T05:20:23.677Z,53.72
2017-08-25T05:22:54.995Z,53.61
2017-08-25T05:25:26.345Z,53.55
2017-08-25T05:27:57.976Z,53.42
2017-08-25T05:30:29.317Z,53.04
2017-08-25T05:33:01.219Z,53.10
2017-08-25T05:35:33.352Z,52.86
2017-08-25T05:38:05.772Z,52.70
2017-08-25T05:40:37.475Z,52.34
2017-08-25T05:43:11.324Z,52.10
2017-08-25T05:45:42.720Z,52.33
2017-08-25T05:48:14.718Z,52.71
2017-08-25T05:50:46.234Z,52.64
2017-08-25T05:53:17.759Z,52.29
2017-08-25T05:55:49.583Z,51.94
2017-08-25T05:58:20.997Z,51.64
2017-08-25T06:00:52.461Z,51.17
2017-08-25T06:03:24.743Z,51.26
2017-08-25T06:05:58.933Z,51.63
2017-08-25T06:08:30.549Z,51.34
2017-08-25T06:11:02.320Z,51.08
2017-08-25T06:13:33.922Z,50.66
2017-08-25T06:16:06.412Z,50.39
2017-08-25T06:18:37.870Z,50.43
2017-08-25T06:21:11.544Z,50.22
2017-08-25T06:23:42.876Z,49.70
2017-08-25T06:26:15.154Z,49.42
2017-08-25T06:28:46.905Z,49.14
2017-08-25T06:31:21.149Z,49.07
2017-08-25T06:33:52.843Z,48.67
2017-08-25T06:36:24.613Z,48.55
2017-08-25T06:38:56.171Z,48.23
2017-08-25T06:44:27.734Z,47.25
2017-08-25T06:46:59.165Z,46.84
2017-08-25T06:49:31.144Z,46.45
2017-08-25T06:52:03.883Z,46.13
2017-08-25T06:54:38.039Z,45.69
2017-08-25T06:57:15.726Z,45.79
2017-08-25T06:59:48.152Z,46.26
2017-08-25T07:05:20.512Z,46.44
2017-08-25T07:07:51.878Z,45.98
2017-08-25T07:10:23.696Z,45.85
2017-08-25T07:12:55.037Z,45.71
2017-08-25T07:15:26.732Z,45.51
2017-08-25T07:17:58.080Z,45.17
2017-08-25T07:20:29.595Z,44.68
2017-08-25T07:23:01.334Z,44.46
2017-08-25T07:25:32.771Z,44.70
2017-08-25T07:28:05.671Z,44.84
2017-08-25T07:30:37.271Z,45.42
2017-08-25T07:33:08.623Z,46.03
2017-08-25T07:35:39.968Z,45.86
2017-08-25T07:38:11.572Z,45.58
2017-08-25T07:40:45.590Z,46.65
2017-08-25T07:43:20.591Z,46.99
2017-08-25T07:45:51.996Z,47.47
2017-08-25T07:48:23.316Z,48.41
2017-08-25T07:50:54.936Z,48.35
2017-08-25T07:53:26.266Z,47.98
2017-08-25T07:55:57.921Z,47.17
2017-08-25T07:58:29.285Z,46.52
2017-08-25T08:01:00.673Z,46.00
2017-08-25T08:03:32.150Z,45.37
2017-08-25T08:06:04.361Z,44.25
2017-08-25T08:08:36.041Z,44.05
2017-08-25T08:11:07.369Z,44.04
2017-08-25T08:13:38.674Z,44.26
2017-08-25T08:16:09.981Z,44.05
2017-08-25T08:18:41.294Z,44.39
2017-08-25T08:21:12.915Z,45.23
2017-08-25T08:23:44.238Z,45.93
2017-08-25T08:26:15.660Z,45.74
2017-08-25T08:28:47.403Z,45.61
2017-08-25T08:31:20.360Z,45.84
2017-08-25T08:33:51.646Z,45.30
2017-08-25T08:36:27.325Z,44.90
2017-08-25T08:38:58.819Z,44.89
2017-08-25T08:41:30.613Z,44.54
2017-08-25T08:44:03.307Z,44.26
2017-08-25T08:46:34.660Z,43.74
2017-08-25T08:49:05.999Z,43.21
2017-08-25T08:51:37.711Z,42.98
2017-08-25T08:54:09.224Z,42.72
2017-08-25T08:56:40.525Z,42.37
2017-08-25T08:59:12.296Z,42.14
2017-08-25T09:04:22.734Z,41.99
2017-08-25T09:06:54.630Z,42.16
2017-08-25T09:09:27.554Z,41.88
2017-08-25T09:11:58.870Z,41.52
2017-08-25T09:14:30.367Z,41.16
2017-08-25T09:17:02.470Z,40.94
2017-08-25T09:19:33.882Z,40.77
2017-08-25T09:22:06.045Z,40.32
2017-08-25T09:24:37.663Z,40.50
2017-08-25T09:27:08.989Z,40.24
2017-08-25T09:29:40.846Z,40.05
2017-08-25T09:32:12.748Z,39.71
2017-08-25T09:34:44.142Z,39.70
2017-08-25T09:37:16.062Z,39.25
2017-08-25T09:39:47.515Z,38.85
2017-08-25T09:42:19.743Z,39.32
2017-08-25T09:44:51.644Z,39.21
2017-08-25T09:47:22.993Z,39.23
2017-08-25T09:49:54.297Z,38.73
2017-08-25T09:52:25.989Z,37.84
2017-08-25T09:54:57.366Z,37.49
2017-08-25T09:57:29.051Z,37.33
2017-08-25T10:00:00.487Z,37.33
2017-08-25T10:02:32.113Z,37.26
2017-08-25T10:05:04.087Z,37.22
2017-08-25T10:07:36.030Z,36.61
2017-08-25T10:10:07.798Z,36.65
2017-08-25T10:12:39.110Z,36.48
2017-08-25T10:15:10.441Z,35.98
2017-08-25T10:17:42.282Z,35.84
2017-08-25T10:20:13.754Z,35.48
2017-08-25T10:22:45.100Z,36.03
2017-08-25T10:25:18.040Z,36.02
2017-08-25T10:27:49.444Z,35.33
2017-08-25T10:30:21.215Z,35.29
2017-08-25T10:32:52.971Z,34.69
2017-08-25T10:39:38.092Z,34.25
2017-08-25T10:44:57.150Z,33.64
2017-08-25T10:47:28.424Z,33.07
2017-08-25T10:50:00.070Z,32.26
2017-08-25T10:52:31.383Z,31.68
2017-08-25T10:55:02.931Z,32.07
2017-08-25T10:57:34.753Z,31.99
2017-08-25T11:00:06.298Z,31.68
2017-08-25T11:02:37.574Z,31.07
2017-08-25T11:05:09.365Z,30.65
2017-08-25T11:07:40.736Z,30.05
2017-08-25T11:10:12.080Z,29.87
2017-08-25T11:12:45.589Z,29.80
2017-08-25T11:15:18.089Z,29.22
2017-08-25T11:17:51.087Z,29.20
2017-08-25T11:20:23.425Z,28.87
2017-08-25T11:22:55.540Z,28.47
2017-08-25T11:25:27.265Z,28.24
2017-08-25T11:27:58.702Z,27.53
2017-08-25T11:30:31.289Z,27.18
2017-08-25T11:33:04.430Z,26.85
2017-08-25T11:35:36.222Z,26.44
2017-08-25T11:38:11.031Z,26.64
2017-08-25T11:40:42.793Z,28.09
2017-08-25T11:43:14.166Z,28.25
2017-08-25T11:45:45.768Z,29.26
2017-08-25T11:48:18.326Z,28.92
2017-08-25T11:50:49.925Z,27.76
2017-08-25T11:53:22.371Z,26.63
2017-08-25T11:55:53.831Z,26.35
2017-08-25T11:58:25.142Z,25.61
2017-08-25T12:00:56.741Z,24.99
2017-08-25T12:03:28.071Z,23.33
2017-08-25T12:05:59.536Z,21.90
2017-08-25T12:08:31.628Z,20.72
2017-08-25T12:11:03.997Z,18.79
2017-08-25T12:13:35.900Z,17.99
2017-08-25T12:16:08.002Z,16.45
2017-08-25T12:18:40.462Z,14.98
2017-08-25T12:21:12.233Z,14.84
2017-08-25T12:23:44.220Z,13.90
2017-08-25T12:26:16.929Z,14.49
2017-08-25T12:28:48.324Z,13.94
2017-08-25T12:31:20.927Z,13.39
2017-08-25T12:33:52.766Z,13.33
2017-08-25T12:36:24.309Z,12.40
2017-08-25T12:38:56.399Z,11.95
2017-08-25T12:41:28.470Z,11.13
2017-08-25T12:43:59.844Z,10.71
2017-08-25T12:46:31.427Z,11.51
2017-08-25T12:49:03.389Z,11.56
2017-08-25T12:51:34.906Z,10.50
2017-08-25T12:54:06.862Z,10.10
2017-08-25T12:56:39.056Z,10.50
2017-08-25T12:59:10.888Z,10.46
2017-08-25T13:01:43.128Z,10.69
2017-08-25T13:04:14.581Z,10.73
2017-08-25T13:06:46.092Z,10.03
2017-08-25T13:09:19.169Z,10.52
2017-08-25T13:11:50.500Z,10.24
2017-08-25T13:14:23.283Z,10.12
2017-08-25T13:17:13.022Z,9.82
2017-08-25T13:19:44.442Z,9.62
2017-08-25T13:22:16.759Z,9.28
2017-08-25T13:24:48.270Z,9.08
2017-08-25T13:27:20.671Z,9.08
2017-08-25T13:29:52.546Z,9.14
2017-08-25T13:32:24.879Z,8.96
2017-08-25T13:34:56.628Z,9.03
2017-08-25T13:37:28.226Z,9.46
2017-08-25T13:39:59.605Z,9.40
2017-08-25T13:42:31.243Z,8.96
2017-08-25T13:45:02.920Z,8.77
2017-08-25T13:47:34.253Z,9.90
2017-08-25T13:50:06.347Z,11.48
2017-08-25T13:52:37.664Z,14.66
2017-08-25T13:55:09.017Z,16.97
2017-08-25T13:57:40.617Z,19.03
2017-08-25T14:00:11.940Z,19.75
2017-08-25T14:02:43.619Z,20.66
2017-08-25T14:05:15.123Z,21.23
2017-08-25T14:07:46.453Z,19.57
2017-08-25T14:10:19.999Z,18.12
2017-08-25T14:12:51.340Z,15.65
2017-08-25T14:15:22.732Z,14.40
2017-08-25T14:17:54.736Z,13.73
2017-08-25T14:20:26.438Z,14.00
2017-08-25T14:22:57.865Z,13.41
2017-08-25T14:25:29.637Z,14.79
2017-08-25T14:28:03.932Z,17.13
2017-08-25T14:30:35.629Z,15.95
2017-08-25T14:33:12.125Z,14.90
2017-08-25T14:35:44.544Z,13.48
2017-08-25T14:38:17.056Z,12.52
2017-08-25T14:40:48.495Z,11.85
2017-08-25T14:43:21.548Z,11.54
2017-08-25T14:45:53.172Z,11.78
2017-08-25T14:48:24.926Z,11.96
2017-08-25T14:50:56.329Z,12.11
2017-08-25T14:53:28.305Z,12.85
2017-08-25T14:56:00.085Z,12.01
2017-08-25T14:58:32.590Z,11.43
2017-08-25T15:01:05.928Z,11.38
2017-08-25T15:03:38.033Z,11.42
2017-08-25T15:06:09.932Z,13.50
2017-08-25T15:08:41.760Z,15.74
2017-08-25T15:11:13.180Z,17.15
2017-08-25T15:13:44.877Z,17.50
2017-08-25T15:16:17.493Z,19.22
2017-08-25T15:18:52.513Z,20.86
2017-08-25T15:21:25.724Z,21.35
2017-08-25T15:23:57.248Z,22.46
2017-08-25T15:26:28.553Z,23.73
2017-08-25T15:29:01.390Z,24.80
2017-08-25T15:31:33.484Z,25.99
2017-08-25T15:34:06.158Z,27.22
2017-08-25T15:36:37.540Z,28.41
2017-08-25T15:39:08.873Z,29.42
2017-08-25T15:41:40.475Z,30.06
2017-08-25T15:44:11.847Z,30.58
2017-08-25T15:46:43.589Z,30.05
2017-08-25T15:49:15.442Z,28.23
2017-08-25T15:51:46.777Z,27.22
2017-08-25T15:54:20.453Z,27.96
2017-08-25T15:56:51.762Z,29.38
2017-08-25T15:59:23.732Z,30.59
2017-08-25T16:01:55.365Z,31.64
2017-08-25T16:04:27.081Z,32.34
2017-08-25T16:06:58.491Z,33.35
2017-08-25T16:09:30.197Z,33.91
2017-08-25T16:12:03.354Z,34.43
2017-08-25T16:14:34.735Z,34.71
2017-08-25T16:17:06.163Z,35.61
2017-08-25T16:19:37.783Z,36.52
2017-08-25T16:22:09.078Z,37.17
2017-08-25T16:24:40.404Z,37.46
2017-08-25T16:27:12.315Z,38.07
2017-08-25T16:29:43.678Z,38.60
2017-08-25T16:32:15.054Z,38.86
2017-08-25T16:34:47.851Z,39.07
2017-08-25T16:37:20.296Z,39.31
2017-08-25T16:39:51.990Z,39.59
2017-08-25T16:42:24.662Z,39.85
2017-08-25T16:44:56.598Z,40.33
2017-08-25T16:47:28.307Z,40.76
2017-08-25T16:49:59.668Z,40.49
2017-08-25T16:52:31.327Z,42.37
2017-08-25T16:55:03.806Z,44.60
2017-08-25T16:57:35.216Z,45.26
2017-08-25T17:00:17.401Z,46.02
2017-08-25T17:02:48.714Z,48.15
2017-08-25T17:05:22.664Z,49.20
2017-08-25T17:07:54.404Z,50.01
2017-08-25T17:10:26.913Z,49.93
2017-08-25T17:13:01.959Z,49.87
2017-08-25T17:15:33.733Z,49.71
2017-08-25T17:18:06.595Z,50.25
2017-08-25T17:20:37.895Z,50.49
2017-08-25T17:23:09.825Z,51.05
2017-08-25T17:28:51.284Z,52.06
2017-08-25T17:31:27.477Z,52.04
2017-08-25T17:34:08.052Z,51.92
2017-08-25T17:36:39.445Z,51.96
2017-08-25T17:39:11.147Z,51.89
2017-08-25T17:41:42.478Z,51.95
2017-08-25T17:44:14.584Z,52.33
2017-08-25T17:46:45.898Z,52.63
2017-08-25T17:49:17.235Z,52.94
2017-08-25T17:51:49.815Z,53.96
2017-08-25T17:54:22.805Z,54.47
2017-08-25T17:56:54.139Z,55.60
2017-08-25T17:59:26.648Z,55.98
2017-08-25T18:01:58.164Z,56.13
2017-08-25T18:04:29.526Z,56.40
2017-08-25T18:07:01.530Z,56.65
2017-08-25T18:09:32.869Z,57.65
2017-08-25T18:12:05.484Z,57.82
2017-08-25T18:14:37.214Z,57.89
2017-08-25T18:17:08.549Z,58.46
2017-08-25T18:19:39.869Z,58.60
2017-08-25T18:22:11.736Z,58.76
2017-08-25T18:24:43.047Z,58.61
2017-08-25T18:27:14.351Z,58.67
2017-08-25T18:29:46.044Z,58.77
2017-08-25T18:32:19.068Z,58.60
2017-08-25T18:34:50.668Z,58.44
2017-08-25T18:37:24.570Z,58.29
2017-08-25T18:39:55.871Z,58.20
2017-08-25T18:42:27.171Z,58.27
2017-08-25T18:44:58.492Z,58.43
2017-08-25T18:47:30.221Z,58.65
2017-08-25T18:50:03.309Z,58.96
2017-08-25T18:52:34.644Z,59.20
2017-08-25T18:55:06.697Z,59.36
2017-08-25T18:57:38.032Z,59.65
2017-08-25T19:00:11.208Z,59.82
2017-08-25T19:02:42.491Z,59.92
2017-08-25T19:05:13.907Z,59.93
2017-08-25T19:07:45.505Z,60.17
2017-08-25T19:10:16.941Z,60.04
2017-08-25T19:12:48.276Z,60.00
2017-08-25T19:15:20.862Z,59.82
2017-08-25T19:17:52.180Z,59.94
2017-08-25T19:20:26.036Z,59.88
2017-08-25T19:22:57.401Z,59.65
2017-08-25T19:25:28.836Z,59.76
2017-08-25T19:28:00.215Z,59.77
2017-08-25T19:30:32.498Z,59.83
2017-08-25T19:33:04.759Z,60.02
2017-08-25T19:35:36.343Z,61.07
2017-08-25T19:38:08.092Z,60.42
2017-08-25T19:40:39.698Z,60.17
2017-08-25T19:43:11.493Z,59.35
2017-08-25T19:45:43.682Z,58.94
2017-08-25T19:49:07.562Z,58.58
2017-08-25T19:51:40.106Z,58.23
2017-08-25T19:54:14.925Z,58.17
2017-08-25T19:56:46.232Z,58.09
2017-08-25T19:59:19.486Z,58.14
2017-08-25T20:01:50.816Z,58.19
2017-08-25T20:04:25.830Z,58.18
2017-08-25T20:07:02.055Z,58.24
2017-08-25T20:09:33.512Z,58.51
2017-08-25T20:12:06.817Z,58.49
2017-08-25T20:14:38.555Z,58.55
2017-08-25T20:17:10.123Z,58.69
2017-08-25T20:19:41.453Z,58.95
2017-08-25T20:22:14.050Z,59.05
2017-08-25T20:24:45.460Z,59.23
2017-08-25T20:27:16.978Z,59.31
2017-08-25T20:29:48.967Z,59.84
2017-08-25T20:32:22.181Z,59.75
2017-08-25T20:34:53.552Z,59.62
2017-08-25T20:37:26.204Z,60.02
2017-08-25T20:39:57.535Z,60.01
2017-08-25T20:42:29.195Z,60.19
2017-08-25T20:45:00.855Z,60.56
2017-08-25T20:47:32.265Z,60.66
2017-08-25T20:50:10.555Z,60.83
2017-08-25T20:52:42.470Z,60.80
2017-08-25T20:55:13.915Z,60.88
2017-08-25T20:57:45.333Z,60.99
2017-08-25T21:00:18.345Z,60.87
2017-08-25T21:02:51.523Z,60.78
2017-08-25T21:05:27.218Z,60.91
2017-08-25T21:07:58.860Z,61.33
2017-08-25T21:10:30.331Z,61.36
2017-08-25T21:13:01.887Z,61.39
2017-08-25T21:15:35.016Z,61.39
2017-08-25T21:18:07.927Z,61.32
2017-08-25T21:20:39.729Z,61.31
2017-08-25T21:23:13.845Z,61.38
2017-08-25T21:25:46.202Z,62.06
2017-08-25T21:28:18.314Z,61.85
2017-08-25T21:30:50.291Z,61.99
2017-08-25T21:33:25.137Z,62.17
2017-08-25T21:35:56.901Z,62.54
2017-08-25T21:38:29.092Z,62.72
2017-08-25T21:41:00.701Z,63.01
2017-08-25T21:43:32.140Z,63.22
2017-08-25T21:46:07.182Z,63.43
2017-08-25T21:48:38.775Z,63.40
2017-08-25T21:51:10.386Z,63.34
2017-08-25T21:53:41.701Z,63.59
2017-08-25T21:58:37.051Z,63.51
2017-08-25T22:01:09.333Z,63.88
2017-08-25T22:03:41.019Z,64.35
2017-08-25T22:06:12.439Z,64.38
2017-08-25T22:08:44.784Z,64.07
2017-08-25T22:11:16.818Z,64.01
2017-08-25T22:16:16.227Z,63.87
2017-08-25T22:18:48.024Z,63.92
2017-08-25T22:21:19.853Z,64.18
2017-08-25T22:23:51.565Z,65.34
2017-08-25T22:26:23.468Z,66.35
2017-08-25T22:28:54.819Z,66.36
2017-08-25T22:31:26.450Z,65.09
2017-08-25T22:33:57.955Z,64.93
2017-08-25T22:36:29.313Z,65.97
2017-08-25T22:39:01.368Z,66.22
2017-08-25T22:41:32.720Z,67.03
2017-08-25T22:44:05.614Z,67.80
2017-08-25T22:46:37.348Z,68.58
2017-08-25T22:49:08.814Z,69.32
2017-08-25T22:51:40.166Z,70.13
2017-08-25T22:54:13.213Z,69.95
2017-08-25T22:56:44.600Z,70.22
2017-08-25T22:59:16.323Z,70.72
2017-08-25T23:01:48.038Z,70.96
2017-08-25T23:04:19.859Z,71.23
2017-08-25T23:06:52.659Z,71.65
2017-08-25T23:09:25.626Z,72.04
2017-08-25T23:11:57.249Z,72.05
2017-08-25T23:14:29.081Z,72.37
2017-08-25T23:17:00.787Z,72.57
2017-08-25T23:19:32.674Z,72.72
2017-08-25T23:22:05.307Z,72.66
2017-08-25T23:24:36.639Z,72.84
2017-08-25T23:30:05.061Z,73.59
2017-08-25T23:32:36.513Z,73.82
2017-08-25T23:35:08.017Z,74.10
2017-08-25T23:37:39.905Z,74.31
2017-08-25T23:40:12.405Z,74.48
2017-08-25T23:42:44.371Z,74.62
2017-08-25T23:45:15.785Z,74.70
2017-08-25T23:47:47.265Z,74.88
2017-08-25T23:50:21.442Z,74.83
2017-08-25T23:52:52.874Z,74.70
2017-08-25T23:55:25.579Z,74.51
2017-08-25T23:57:57.374Z,74.09
